Weather reports worldwide

Advertisment
Somosierra, Spain (8145): temperature & dewpoint: 16.06.2018 15:00:00 - 22.06.2018 15:00:00 (CEST)Somosierra, Spain (8145): wind speed & gusts: 16.06.2018 15:00:00 - 22.06.2018 15:00:00 (CEST)Somosierra, Spain (8145): wind direction: 16.06.2018 15:00:00 - 22.06.2018 15:00:00 (CEST)Somosierra, Spain (8145): precipitation: 16.06.2018 15:00:00 - 22.06.2018 15:00:00 (CEST)
Date & Time tt [°C] td [°C] ff [km/h] ff [kn] fx [km/h] fx [kn] dd rr [mm]
22.06.2018 15:00:00 - - - - - - - -
22.06.2018 14:00:00 24,2 - 10 5 24 13 SSW -
22.06.2018 13:00:00 23,5 - 8 4 18 10 S 0,0
22.06.2018 12:00:00 22,3 - 7 4 20 11 S 0,0
22.06.2018 11:00:00 21,1 - 10 5 19 11 S 0,0
22.06.2018 10:00:00 20,4 - 9 5 17 9 S 0,0
22.06.2018 09:00:00 18,2 - 8 4 13 7 S 0,0
22.06.2018 08:00:00 16,0 - 5 3 16 9 SSE -
22.06.2018 07:00:00 15,1 - 7 4 14 8 SE 0,0
22.06.2018 06:00:00 15,4 - 6 3 11 6 SE 0,0
22.06.2018 05:00:00 15,4 - 5 3 14 7 SSE 0,0
22.06.2018 04:00:00 16,7 - 5 3 19 11 SSE 0,0
22.06.2018 03:00:00 17,9 - 8 4 25 13 SE 0,0
22.06.2018 02:00:00 19,0 - 3 2 19 10 ESE -
22.06.2018 01:00:00 18,3 - 4 2 16 8 ENE 0,0
22.06.2018 00:00:00 16,9 - 2 1 8 4 NNE 0,0
21.06.2018 23:00:00 18,1 - 3 2 8 4 E 0,0
21.06.2018 22:00:00 18,1 - 3 2 8 5 E 0,0
21.06.2018 21:00:00 21,1 - 0 0 10 5 SE 0,0
21.06.2018 20:00:00 23,9 - 6 3 20 11 SW -
21.06.2018 19:00:00 24,6 - 8 4 23 12 SW 0,0
21.06.2018 18:00:00 25,0 - 11 6 23 12 SSW 0,0
21.06.2018 17:00:00 24,3 - 4 2 24 13 SW 0,0
21.06.2018 16:00:00 24,2 - 10 5 26 14 S 0,0
21.06.2018 15:00:00 23,7 - 14 7 27 15 S 0,0
21.06.2018 14:00:00 23,1 - 11 6 25 14 S -
21.06.2018 13:00:00 22,2 - 14 7 26 14 SSW 0,0
21.06.2018 12:00:00 21,0 - 12 6 23 13 S 0,0
21.06.2018 11:00:00 20,1 - 16 8 24 13 S 0,0
21.06.2018 10:00:00 19,2 -9,0 14 7 22 12 S 0,0
21.06.2018 09:00:00 18,3 -0,5 9 5 18 10 S 0,0
21.06.2018 08:00:00 16,5 10,5 6 3 11 6 SSE -
21.06.2018 07:00:00 14,9 9,4 2 1 4 2 S 0,0
21.06.2018 06:00:00 14,6 9,2 0 0 6 3 NNE 0,0
21.06.2018 05:00:00 14,5 9,0 2 1 9 5 N 0,0
21.06.2018 04:00:00 15,6 2,5 0 0 12 7 S 0,0
21.06.2018 03:00:00 16,7 - 7 4 14 7 S 0,0
21.06.2018 02:00:00 18,7 - 6 3 19 11 SSE -
21.06.2018 01:00:00 19,8 - 7 4 26 14 E 0,0
21.06.2018 00:00:00 19,6 - 11 6 29 16 E 0,0
20.06.2018 23:00:00 19,5 - 2 1 11 6 SE 0,0
20.06.2018 22:00:00 18,9 - 0 0 10 5 SE 0,0
20.06.2018 21:00:00 20,2 - 3 1 7 4 E 0,0
20.06.2018 20:00:00 21,3 - 0 0 15 8 NNE -
20.06.2018 19:00:00 24,4 - 4 2 14 7 SW 0,0
20.06.2018 18:00:00 25,2 - 2 1 11 6 WNW 0,0
20.06.2018 17:00:00 24,9 - 3 2 19 11 SW 0,0
20.06.2018 16:00:00 25,8 - 5 3 21 11 SSW 0,0
20.06.2018 15:00:00 24,6 - 7 4 20 11 S 0,0
20.06.2018 14:00:00 23,8 - 9 5 20 11 S -
20.06.2018 13:00:00 23,0 - 9 5 18 10 SSW 0,0
20.06.2018 12:00:00 22,0 - 11 6 20 11 S 0,0
20.06.2018 11:00:00 20,6 - 10 6 19 11 SSW 0,0
20.06.2018 10:00:00 19,5 - 10 5 16 9 S 0,0
20.06.2018 09:00:00 18,5 - 6 4 18 10 S 0,0
20.06.2018 08:00:00 15,9 -3,6 7 4 18 10 SSE -
20.06.2018 07:00:00 15,2 0,2 8 4 22 12 SSE 0,0
20.06.2018 06:00:00 15,0 3,2 10 5 19 10 SSE 0,0
20.06.2018 05:00:00 14,8 4,5 9 5 17 9 SE 0,0
20.06.2018 04:00:00 14,5 5,3 6 4 16 9 S 0,0
20.06.2018 03:00:00 16,3 -11,2 4 2 14 8 SSE 0,0
20.06.2018 02:00:00 17,2 - 7 4 11 6 ESE -
20.06.2018 01:00:00 16,5 1,3 0 0 2 1 ENE 0,0
20.06.2018 00:00:00 17,0 -6,7 0 0 6 4 SSE 0,0
19.06.2018 23:00:00 18,6 - 3 2 7 4 ESE 0,0
19.06.2018 22:00:00 18,1 - 1 1 8 4 SE 0,0
19.06.2018 21:00:00 20,2 - 1 1 9 5 S 0,0
19.06.2018 20:00:00 22,7 - 5 3 12 6 SSW -
19.06.2018 19:00:00 23,2 - 5 3 18 10 S 0,0
19.06.2018 18:00:00 23,1 - 9 5 21 11 S 0,0
19.06.2018 17:00:00 23,7 - 7 4 24 13 S 0,0
19.06.2018 16:00:00 22,4 - 10 6 23 13 S 0,0
19.06.2018 15:00:00 22,3 - 11 6 27 14 S 0,0
19.06.2018 14:00:00 21,6 - 13 7 24 13 SSW -
19.06.2018 13:00:00 20,6 - 11 6 26 14 SSW 0,0
19.06.2018 12:00:00 19,7 - 14 8 29 16 S 0,0
19.06.2018 11:00:00 18,9 - 15 8 29 16 S 0,0
19.06.2018 10:00:00 17,6 - 13 7 23 13 S 0,0
19.06.2018 09:00:00 15,5 -11,7 9 5 14 8 S 0,0
19.06.2018 08:00:00 11,8 6,7 5 3 9 5 S -
19.06.2018 07:00:00 10,5 5,3 4 2 8 4 S 0,0
19.06.2018 06:00:00 10,3 5,1 4 2 9 5 S 0,0
19.06.2018 05:00:00 11,6 6,2 4 2 10 5 SSE 0,0
19.06.2018 04:00:00 12,6 7,3 4 2 7 4 S 0,0
19.06.2018 03:00:00 13,5 0,4 3 2 9 5 S 0,0
19.06.2018 02:00:00 12,7 7,4 1 1 6 3 ENE -
19.06.2018 01:00:00 12,5 7,1 0 0 9 5 NNE 0,0
19.06.2018 00:00:00 12,9 7,6 3 2 19 10 N 0,0
18.06.2018 23:00:00 14,3 9,0 5 3 16 9 N 0,0
18.06.2018 22:00:00 15,6 5,1 2 1 19 10 N 0,0
18.06.2018 21:00:00 18,0 - 4 2 22 12 N 0,0
18.06.2018 20:00:00 20,9 - 7 4 23 12 N -
18.06.2018 19:00:00 22,6 - 4 2 19 10 NNW 0,0
18.06.2018 18:00:00 23,1 - 4 2 25 14 NNW 0,0
18.06.2018 17:00:00 22,5 - 6 3 24 13 NNW 0,0
18.06.2018 16:00:00 22,2 - 6 3 21 12 N 0,0
18.06.2018 15:00:00 21,4 - 5 3 23 12 NNW 0,0
18.06.2018 14:00:00 20,9 - 8 4 29 15 N -
18.06.2018 13:00:00 20,8 - 8 5 26 14 N 0,0
18.06.2018 12:00:00 19,1 - 9 5 25 14 N 0,0
18.06.2018 11:00:00 17,7 - 6 3 19 11 N 0,0
18.06.2018 10:00:00 15,9 - 5 3 18 10 N 0,0
18.06.2018 09:00:00 14,0 0,9 1 1 15 8 N 0,0
18.06.2018 08:00:00 11,1 5,8 1 1 9 5 N -
18.06.2018 07:00:00 10,0 4,8 0 0 6 3 N 0,0
18.06.2018 06:00:00 10,2 5,0 0 0 6 4 N 0,0
18.06.2018 05:00:00 10,5 5,3 0 0 11 6 NNE 0,0
18.06.2018 04:00:00 10,0 5,0 4 2 13 7 N 0,0
18.06.2018 03:00:00 10,5 4,6 5 3 13 7 N 0,0
18.06.2018 02:00:00 10,6 5,6 2 1 14 7 N -
18.06.2018 01:00:00 10,9 4,1 4 2 15 8 N 0,0
18.06.2018 00:00:00 11,5 -1,7 0 0 4 2 N 0,0
17.06.2018 23:00:00 12,7 - 0 0 8 4 N 0,0
17.06.2018 22:00:00 14,4 - 1 0 10 5 N 0,0
17.06.2018 21:00:00 16,8 - 1 0 22 12 NNW 0,0
17.06.2018 20:00:00 20,0 - 6 4 23 12 NNW -
17.06.2018 19:00:00 20,9 - 7 4 24 13 N 0,0
17.06.2018 18:00:00 21,5 - 6 3 23 12 N 0,0
17.06.2018 17:00:00 21,1 - 7 4 32 17 N 0,0
17.06.2018 16:00:00 21,1 - 8 5 26 14 N 0,0
17.06.2018 15:00:00 20,9 - 7 4 26 14 N 0,0
17.06.2018 14:00:00 20,4 - 6 4 25 13 N -
17.06.2018 13:00:00 19,8 - 5 3 21 11 N 0,0
17.06.2018 12:00:00 18,1 - 6 3 26 14 NNW 0,0
17.06.2018 11:00:00 17,6 - 4 2 17 9 N 0,0
17.06.2018 10:00:00 15,9 - 6 4 18 10 N 0,0
17.06.2018 09:00:00 14,7 - 5 3 16 8 N 0,0
17.06.2018 08:00:00 12,5 -0,5 0 0 4 2 N -
17.06.2018 07:00:00 10,6 -1,0 0 0 4 2 N 0,0
17.06.2018 06:00:00 11,6 -6,4 0 0 10 5 NNE 0,0
17.06.2018 05:00:00 10,2 -4,2 4 2 10 5 N 0,0
17.06.2018 04:00:00 10,3 -1,2 2 1 9 5 NNE 0,0
17.06.2018 03:00:00 10,0 0,9 2 1 8 4 N 0,0
17.06.2018 02:00:00 10,4 -7,8 0 0 5 3 NNE -
17.06.2018 01:00:00 11,0 -5,1 0 0 4 2 ENE 0,0
17.06.2018 00:00:00 10,8 - 0 0 6 3 N 0,0
16.06.2018 23:00:00 11,8 - 3 1 9 5 N 0,0
16.06.2018 22:00:00 13,0 - 2 1 9 5 N 0,0
16.06.2018 21:00:00 16,0 - 2 1 16 9 N 0,0
16.06.2018 20:00:00 20,0 - 2 1 22 12 NNW -
16.06.2018 19:00:00 20,6 - 7 4 24 13 N 0,0
16.06.2018 18:00:00 21,4 - 5 3 24 13 N 0,0
16.06.2018 17:00:00 21,2 - 5 3 23 12 N 0,0
16.06.2018 16:00:00 20,8 - 7 4 24 13 N 0,0
16.06.2018 15:00:00 20,7 - 4 2 22 12 N 0,0

tt = temperature
td = dewpoint
ff = wind speed
fx = gusts
dd = wind direction
rr = precipitation

Next stations